Osceola Municipal, IA

4:39 PM CDT on May 25, 2017 (GMT -0500)
Osceola Municipal

Weather History for KI75 - November, 2012

Change the Weather History Date:

Friday, November 16, 2012

  Actual Average (KCNC) Record (KCNC)
Temperature  
Mean Temperature 41 °F -  
Max Temperature 56 °F 50 °F 77 °F (2001)
Min Temperature 26 °F 29 °F 6 °F (1959)
Degree Days  
Heating Degree Days 24    
Moisture  
Dew Point 30 °F    
Average Humidity 71    
Maximum Humidity 93    
Minimum Humidity 37    
Precipitation  
Precipitation 0.00 in - - ()
Sea Level Pressure  
Sea Level Pressure 30.41 in    
Wind  
Wind Speed 4 mph (North)    
Max Wind Speed 9 mph    
Max Gust Speed -    
Visibility 10 miles    
Events      
Averages and records for this station are not official NWS values.
T = Trace of Precipitation, MM = Missing Value Source: NWS Daily Summary

Daily Weather History Graph

Daily Weather History Graph

Search for Another Location

Airport or City:

Trip Planner

Search our weather history database for the weather conditions in past years. The results will help you decide how hot, cold, wet, or windy it might be!

Date:

Astronomy

Nov. 16, 2012 Rise Set
Actual Time 7:04 AM CST 4:54 PM CST
Civil Twilight 6:34 AM CST 5:24 PM CST
Nautical Twilight 6:01 AM CST 5:57 PM CST
Astronomical Twilight 5:28 AM CST 6:30 PM CST
Moon 9:59 AM CST (11/16) 7:54 PM CST (11/16)
Length of Visible Light 10h 49m
Length of Day
9h 50m
Waxing Crescent, 12% of the Moon is Illuminated
Nov 16
Waxing Crescent
Nov 20
First Quarter
Nov 28
Full
Dec 6
Last Quarter
Dec 13
New

Hourly Weather History & Observations

Time (CST) Temp. Windchill Dew Point Humidity Pressure Visibility Wind Dir Wind Speed Gust Speed Precip Events Conditions
12:15 AM 35.8 °F 30.1 °F 31.6 °F 85% 30.41 in 10.0 mi NNW 6.9 mph - N/A   Clear
12:35 AM 35.6 °F 31.7 °F 31.6 °F 85% 30.41 in 10.0 mi NW 4.6 mph - N/A   Clear
12:55 AM 35.6 °F 29.9 °F 31.6 °F 85% 30.41 in 10.0 mi NNW 6.9 mph - N/A   Clear
1:15 AM 34.3 °F 28.4 °F 31.1 °F 88% 30.41 in 10.0 mi NNW 6.9 mph - N/A   Clear
1:35 AM 33.6 °F 27.5 °F 30.6 °F 89% 30.41 in 10.0 mi NW 6.9 mph - N/A   Clear
1:55 AM 32.9 °F 25.9 °F 30.2 °F 90% 30.41 in 10.0 mi NNW 8.1 mph - N/A   Clear
2:15 AM 33.4 °F 25.9 °F 30.9 °F 90% 30.41 in 10.0 mi NNW 9.2 mph - N/A   Clear
2:35 AM 32.5 °F 26.2 °F 29.8 °F 90% 30.41 in 10.0 mi NW 6.9 mph - N/A   Clear
2:55 AM 32.0 °F 28.7 °F 29.5 °F 90% 30.42 in 10.0 mi NNW 3.5 mph - N/A   Clear
3:15 AM 31.8 °F 26.2 °F 29.1 °F 90% 30.43 in 10.0 mi NNW 5.8 mph - N/A   Clear
3:35 AM 31.8 °F 24.6 °F 29.1 °F 90% 30.42 in 10.0 mi NNW 8.1 mph - N/A   Clear
3:55 AM 31.3 °F 24.7 °F 28.9 °F 91% 30.42 in 10.0 mi NNW 6.9 mph - N/A   Clear
4:15 AM 31.1 °F 25.4 °F 28.8 °F 91% 30.42 in 10.0 mi NNW 5.8 mph - N/A   Clear
4:35 AM 30.7 °F 26.0 °F 28.0 °F 90% 30.43 in 10.0 mi NW 4.6 mph - N/A   Clear
4:55 AM 29.8 °F 24.9 °F 27.1 °F 90% 30.43 in 10.0 mi NNW 4.6 mph - N/A   Clear
5:15 AM 28.9 °F - 26.4 °F 90% 30.43 in 10.0 mi Calm Calm - N/A   Clear
5:35 AM 29.1 °F - 26.8 °F 91% 30.43 in 10.0 mi Calm Calm - N/A   Clear
5:55 AM 28.4 °F 24.6 °F 26.2 °F 92% 30.43 in 10.0 mi NW 3.5 mph - N/A   Clear
6:15 AM 27.7 °F 23.8 °F 25.5 °F 92% 30.43 in 7.0 mi NW 3.5 mph - N/A   Clear
6:35 AM 27.1 °F - 25.0 °F 92% 30.43 in 10.0 mi Calm Calm - N/A   Clear
6:55 AM 27.5 °F 23.6 °F 25.7 °F 93% 30.43 in 7.0 mi NNW 3.5 mph - N/A   Clear
7:15 AM 26.6 °F 20.0 °F 24.8 °F 93% 30.43 in 7.0 mi NNW 5.8 mph - N/A   Clear
7:35 AM 27.9 °F 22.6 °F 25.7 °F 92% 30.44 in 7.0 mi NNW 4.6 mph - N/A   Clear
7:55 AM 28.8 °F 25.0 °F 26.4 °F 91% 30.44 in 7.0 mi NW 3.5 mph - N/A   Clear
8:15 AM 30.6 °F 27.1 °F 27.5 °F 88% 30.45 in 10.0 mi NW 3.5 mph - N/A   Clear
8:35 AM 32.0 °F 28.7 °F 28.4 °F 87% 30.45 in 10.0 mi NNW 3.5 mph - N/A   Clear
8:55 AM 33.6 °F - 29.1 °F 84% 30.45 in 10.0 mi Calm Calm - N/A   Clear
9:15 AM 35.8 °F - 30.2 °F 80% 30.45 in 10.0 mi Calm Calm - N/A   Clear
9:35 AM 37.4 °F - 31.3 °F 79% 30.45 in 10.0 mi Calm Calm - N/A   Clear
9:55 AM 39.2 °F - 31.8 °F 75% 30.45 in 10.0 mi Calm Calm - N/A   Clear
10:15 AM 40.5 °F - 32.2 °F 72% 30.45 in 10.0 mi Calm Calm - N/A   Clear
10:35 AM 43.3 °F - 33.8 °F 69% 30.46 in 10.0 mi Calm Calm - N/A   Clear
10:55 AM 45.7 °F - 34.7 °F 65% 30.46 in 10.0 mi Calm Calm - N/A   Clear
11:15 AM 47.5 °F - 35.4 °F 63% 30.45 in 10.0 mi Calm Calm - N/A   Clear
11:35 AM 49.1 °F - 36.0 °F 61% 30.45 in 10.0 mi Calm Calm - N/A   Clear
11:55 AM 50.9 °F - 35.4 °F 55% 30.44 in 10.0 mi Calm Calm - N/A   Clear
12:15 PM 52.3 °F - 35.8 °F 53% 30.44 in 10.0 mi Calm Calm - N/A   Clear
12:35 PM 53.1 °F - 34.2 °F 49% 30.43 in 10.0 mi Calm Calm - N/A   Clear
12:55 PM 54.0 °F - 34.0 °F 47% 30.42 in 10.0 mi Calm Calm - N/A   Clear
1:15 PM 55.4 °F - 33.3 °F 43% 30.41 in 10.0 mi Calm Calm - N/A   Clear
1:35 PM 55.8 °F - 33.4 °F 43% 30.41 in 10.0 mi Calm Calm - N/A   Clear
1:55 PM 55.8 °F - 31.3 °F 39% 30.40 in 10.0 mi Calm Calm - N/A   Clear
2:15 PM 55.8 °F - 31.3 °F 39% 30.39 in 10.0 mi Calm Calm - N/A   Clear
2:35 PM 56.1 °F - 30.2 °F 37% 30.39 in 10.0 mi Calm Calm - N/A   Clear
2:55 PM 56.7 °F - 31.3 °F 38% 30.39 in 10.0 mi Calm Calm - N/A   Clear
3:15 PM 56.3 °F - 30.0 °F 37% 30.39 in 10.0 mi Calm Calm - N/A   Clear
3:35 PM 56.3 °F - 30.0 °F 37% 30.39 in 10.0 mi Calm Calm - N/A   Clear
3:55 PM 55.8 °F - 31.1 °F 39% 30.38 in 10.0 mi South 4.6 mph - N/A   Clear
4:15 PM 54.5 °F - 31.8 °F 42% 30.38 in 10.0 mi Calm Calm - N/A   Clear
4:35 PM 52.0 °F - 31.8 °F 46% 30.38 in 10.0 mi Calm Calm - N/A   Clear
4:55 PM 49.5 °F - 31.8 °F 51% 30.38 in 10.0 mi SSE 3.5 mph - N/A   Clear
5:15 PM 48.4 °F - 31.1 °F 51% 30.37 in 10.0 mi SSE 3.5 mph - N/A   Clear
5:35 PM 47.7 °F - 30.7 °F 52% 30.37 in 10.0 mi SE 3.5 mph - N/A   Clear
5:55 PM 45.9 °F 43.6 °F 30.6 °F 55% 30.37 in 10.0 mi SE 4.6 mph - N/A   Clear
6:15 PM 44.2 °F 41.8 °F 30.7 °F 59% 30.37 in 10.0 mi SE 4.6 mph - N/A   Clear
6:35 PM 44.6 °F 42.2 °F 30.2 °F 57% 30.37 in 10.0 mi SE 4.6 mph - N/A   Clear
6:55 PM 44.8 °F 43.3 °F 30.0 °F 56% 30.37 in 10.0 mi SE 3.5 mph - N/A   Clear
7:15 PM 43.2 °F 41.5 °F 30.2 °F 60% 30.37 in 10.0 mi SE 3.5 mph - N/A   Clear
7:55 PM 41.4 °F 38.4 °F 30.4 °F 65% 30.36 in 10.0 mi SE 4.6 mph - N/A   Clear
8:15 PM 41.2 °F 38.2 °F 30.2 °F 65% 30.36 in 10.0 mi SE 4.6 mph - N/A   Clear
8:35 PM 40.1 °F 36.1 °F 30.2 °F 68% 30.36 in 10.0 mi SE 5.8 mph - N/A   Clear
8:55 PM 39.2 °F 35.9 °F 30.4 °F 71% 30.37 in 10.0 mi SE 4.6 mph - N/A   Clear
9:15 PM 38.8 °F 33.8 °F 30.9 °F 73% 30.36 in 10.0 mi SE 6.9 mph - N/A   Clear
9:55 PM 37.8 °F 34.2 °F 31.1 °F 77% 30.37 in 10.0 mi SSE 4.6 mph - N/A   Clear
10:15 PM 37.6 °F 33.1 °F 30.7 °F 76% 30.37 in 10.0 mi SE 5.8 mph - N/A   Clear
10:35 PM 37.4 °F 32.8 °F 30.7 °F 77% 30.36 in 10.0 mi SE 5.8 mph - N/A   Clear
10:55 PM 37.9 °F 33.5 °F 31.1 °F 76% 30.37 in 10.0 mi SSE 5.8 mph - N/A   Clear
11:15 PM 38.7 °F 34.3 °F 31.3 °F 75% 30.37 in 10.0 mi South 5.8 mph - N/A   Clear
11:35 PM 37.2 °F 33.6 °F 30.9 °F 78% 30.38 in 10.0 mi SSE 4.6 mph - N/A   Clear
11:55 PM 37.0 °F 31.0 °F 31.3 °F 80% 30.37 in 10.0 mi SE 8.1 mph - N/A   Clear